Route Details

Aircraft Information
Group: North America Fleet
Types: B738, B752, B762, B763
Route Data
Distance: 309nm
Duration: 1h 25m
Origin METAR: KMCI 010453Z 21005KT 10SM CLR M08/M16 A3036 RMK AO2 SLP295 T10831156
Dest. METAR: KRFD 010454Z 19004KT 10SM CLR M18/M22 A3037 RMK AO2 SLP303 T11831222
Freight Data
(for Feb 1, 2023)
Load Factor:
48%
Manifested Cargo: 40,944lbs
Financial History
Total Freight: 630,849lbs
Average Load: 0lbs/flt
Fuel Used: 71,696lbs
Avg. Fuel Used: 0lbs/flt
Fuel Expense: $67,504
Avg. Fuel Expense: $0
Avg. Fuel Cost: $0/lbs
Total Gross Income: $1,008,311
Pilot Pay: $1,832
Total Expenses: $144,471
Total Revenue: $794,146
Average Revenue: $0

Capitol Logistics 360




KMCI
Kansas City International Airport
Kansas City, Missouri
KRFD
Chicago/Rockford International Airport
Rockford, Illinois

Activity Log

Date Flight Route Aircraft Duration
01/22/2023 CPX360 ROYAL9 BODYN DCT IOW DCT PLL DCT B738 1h 11m
11/09/2022 CPX360 ROYAL9 ARENZ DCT IOW V6 CVA DCT B763 1h 10m
07/18/2022 CPX360 ROYAL9 BODYN IOW RFD B763 0h 56m
12/17/2020 CPX321 ROYAL9 BODYN IOW RFD B763 1h 09m
02/04/2020 CPX321 ROYAL9 BODYN MZV RFD B763 1h 08m
09/18/2019 CPX321 ROYAL9 BODYN MZV RFD B763 0h 57m
04/14/2019 CPX321 KIVDE V502 IRK J232 MZV B763 1h 12m
04/03/2019 CPX321 ROYAL9 BODYN MZV RFD B763 1h 04m